createdAt,value
2016-11-22T00:00:20.200Z,0
2016-11-22T00:01:30.736Z,0
2016-11-22T00:02:41.267Z,0
2016-11-22T00:03:51.801Z,0
2016-11-22T00:05:02.552Z,0
2016-11-22T00:06:27.607Z,0
2016-11-22T00:07:38.140Z,0
2016-11-22T00:08:49.178Z,0
2016-11-22T00:10:14.239Z,0
2016-11-22T00:12:49.840Z,0
2016-11-22T00:14:00.369Z,0
2016-11-22T00:15:25.431Z,0
2016-11-22T00:16:50.489Z,0
2016-11-22T00:18:01.019Z,0
2016-11-22T00:19:11.577Z,0
2016-11-22T00:20:22.719Z,0
2016-11-22T00:21:33.251Z,0
2016-11-22T00:22:43.782Z,0
2016-11-22T00:23:54.314Z,0
2016-11-22T00:25:04.845Z,0
2016-11-22T00:26:15.378Z,0
2016-11-22T00:27:25.920Z,0
2016-11-22T00:28:50.975Z,0
2016-11-22T00:30:01.546Z,0
2016-11-22T00:31:12.278Z,0
2016-11-22T00:32:23.306Z,0
2016-11-22T00:33:33.834Z,0
2016-11-22T00:34:44.369Z,0
2016-11-22T00:35:54.900Z,0
2016-11-22T00:37:05.530Z,0
2016-11-22T00:38:16.070Z,0
2016-11-22T00:39:26.634Z,0
2016-11-22T00:40:37.170Z,0
2016-11-22T00:41:47.704Z,0
2016-11-22T00:42:58.437Z,0
2016-11-22T00:44:08.968Z,0
2016-11-22T00:45:19.504Z,0
2016-11-22T00:46:30.039Z,0
2016-11-22T00:47:40.569Z,0
2016-11-22T00:48:51.201Z,0
2016-11-22T00:50:01.740Z,0
2016-11-22T00:51:12.309Z,0
2016-11-22T00:52:23.347Z,0
2016-11-22T00:53:33.880Z,0
2016-11-22T00:54:44.610Z,0
2016-11-22T00:55:55.144Z,0
2016-11-22T00:57:20.208Z,0
2016-11-22T00:58:30.748Z,0
2016-11-22T01:01:06.372Z,0
2016-11-22T01:02:16.905Z,0
2016-11-22T01:03:27.436Z,0
2016-11-22T01:04:38.173Z,0
2016-11-22T01:06:03.238Z,0
2016-11-22T01:07:28.790Z,0
2016-11-22T01:08:39.358Z,0
2016-11-22T01:09:50.118Z,0
2016-11-22T01:11:01.157Z,0
2016-11-22T01:12:26.214Z,0
2016-11-22T01:13:37.240Z,0
2016-11-22T01:14:47.770Z,0
2016-11-22T01:16:12.829Z,0
2016-11-22T01:17:23.272Z,0
2016-11-22T01:18:33.720Z,0
2016-11-22T01:19:44.163Z,0
2016-11-22T01:20:54.604Z,0
2016-11-22T01:22:05.044Z,0
2016-11-22T01:23:15.486Z,0
2016-11-22T01:24:25.927Z,0
2016-11-22T01:25:36.368Z,0
2016-11-22T01:26:46.810Z,0
2016-11-22T01:27:57.255Z,0
2016-11-22T01:29:07.706Z,0
2016-11-22T01:30:18.141Z,0
2016-11-22T01:31:28.584Z,0
2016-11-22T01:32:39.049Z,0
2016-11-22T01:33:49.523Z,0
2016-11-22T01:34:59.959Z,0
2016-11-22T01:36:10.400Z,0
2016-11-22T01:37:20.933Z,0
2016-11-22T01:38:31.255Z,0
2016-11-22T01:39:41.575Z,0
2016-11-22T01:41:06.465Z,0
2016-11-22T01:42:16.987Z,0
2016-11-22T01:43:27.312Z,0
2016-11-22T01:44:37.631Z,0
2016-11-22T01:45:47.951Z,0
2016-11-22T01:46:58.275Z,0
2016-11-22T01:48:08.625Z,0
2016-11-22T01:49:19.438Z,0
2016-11-22T01:50:29.764Z,0
2016-11-22T01:51:40.091Z,0
2016-11-22T01:52:50.421Z,0
2016-11-22T01:54:00.837Z,0
2016-11-22T01:55:11.159Z,0
2016-11-22T01:56:21.482Z,0
2016-11-22T01:57:31.805Z,0
2016-11-22T01:58:42.132Z,0
2016-11-22T01:59:52.653Z,0
2016-11-22T02:01:02.970Z,0
2016-11-22T02:02:13.288Z,0
2016-11-22T02:03:23.608Z,0
2016-11-22T02:04:33.929Z,0
2016-11-22T02:05:44.252Z,0
2016-11-22T02:06:54.572Z,0
2016-11-22T02:08:04.893Z,0
2016-11-22T02:09:15.212Z,0
2016-11-22T02:10:25.534Z,0
2016-11-22T02:11:36.018Z,0
2016-11-22T02:12:46.460Z,0
2016-11-22T02:13:56.898Z,0
2016-11-22T02:15:07.342Z,0
2016-11-22T02:16:17.798Z,0
2016-11-22T02:17:28.264Z,0
2016-11-22T02:18:38.704Z,0
2016-11-22T02:19:49.144Z,0
2016-11-22T02:20:59.585Z,0
2016-11-22T02:22:10.039Z,0
2016-11-22T02:23:20.684Z,0
2016-11-22T02:24:31.146Z,0
2016-11-22T02:25:41.587Z,0
2016-11-22T02:28:17.239Z,0
2016-11-22T02:29:27.676Z,0
2016-11-22T02:30:53.151Z,0
2016-11-22T02:32:03.589Z,0
2016-11-22T02:33:14.229Z,0
2016-11-22T02:34:24.673Z,0
2016-11-22T02:35:35.115Z,0
2016-11-22T02:36:46.045Z,0
2016-11-22T02:37:56.482Z,0
2016-11-22T02:39:06.933Z,0
2016-11-22T02:40:17.372Z,0
2016-11-22T02:41:27.811Z,0
2016-11-22T02:42:38.249Z,0
2016-11-22T02:43:48.691Z,0
2016-11-22T02:44:59.233Z,0
2016-11-22T02:46:09.682Z,0
2016-11-22T02:47:20.121Z,0
2016-11-22T02:48:30.557Z,0
2016-11-22T02:49:40.997Z,0
2016-11-22T02:50:51.435Z,0
2016-11-22T02:52:01.878Z,0
2016-11-22T02:53:12.315Z,0
2016-11-22T02:54:22.753Z,0
2016-11-22T02:55:33.190Z,0
2016-11-22T02:56:43.830Z,0
2016-11-22T02:57:54.276Z,0
2016-11-22T02:59:04.719Z,0
2016-11-22T03:00:15.157Z,0
2016-11-22T03:01:26.084Z,0
2016-11-22T03:02:36.626Z,0
2016-11-22T03:03:47.066Z,0
2016-11-22T03:04:57.504Z,0
2016-11-22T03:06:08.440Z,0
2016-11-22T03:07:18.887Z,0
2016-11-22T03:08:29.442Z,0
2016-11-22T03:09:40.370Z,0
2016-11-22T03:10:50.811Z,0
2016-11-22T03:12:01.254Z,0
2016-11-22T03:13:11.695Z,0
2016-11-22T03:14:22.161Z,0
2016-11-22T03:15:32.603Z,0
2016-11-22T03:16:43.045Z,0
2016-11-22T03:17:53.484Z,0
2016-11-22T03:19:03.923Z,0
2016-11-22T03:20:14.463Z,0
2016-11-22T03:21:24.803Z,0
2016-11-22T03:22:35.126Z,0
2016-11-22T03:23:45.449Z,0
2016-11-22T03:24:55.803Z,0
2016-11-22T03:26:06.254Z,0
2016-11-22T03:27:16.571Z,0
2016-11-22T03:28:26.895Z,0
2016-11-22T03:29:37.216Z,0
2016-11-22T03:30:47.564Z,0
2016-11-22T03:31:58.075Z,0
2016-11-22T03:33:08.535Z,0
2016-11-22T03:34:19.435Z,0
2016-11-22T03:35:29.844Z,0
2016-11-22T03:36:40.257Z,0
2016-11-22T03:37:50.766Z,0
2016-11-22T03:39:01.177Z,0
2016-11-22T03:40:11.595Z,0
2016-11-22T03:41:22.496Z,0
2016-11-22T03:42:32.911Z,0
2016-11-22T03:43:43.353Z,0
2016-11-22T03:44:53.770Z,0
2016-11-22T03:46:04.179Z,0
2016-11-22T03:48:39.660Z,0
2016-11-22T03:49:50.068Z,0
2016-11-22T03:51:00.481Z,0
2016-11-22T03:52:10.892Z,0
2016-11-22T03:53:21.305Z,0
2016-11-22T03:54:46.465Z,0
2016-11-22T03:55:56.895Z,0
2016-11-22T03:57:07.457Z,0
2016-11-22T03:58:17.985Z,0
2016-11-22T03:59:28.522Z,0
2016-11-22T04:00:39.060Z,0
2016-11-22T04:01:49.592Z,0
2016-11-22T04:03:00.123Z,0
2016-11-22T04:04:10.654Z,0
2016-11-22T04:05:21.184Z,0
2016-11-22T04:06:31.726Z,0
2016-11-22T04:07:42.258Z,0
2016-11-22T04:08:52.799Z,0
2016-11-22T04:10:03.825Z,0
2016-11-22T04:11:14.356Z,0
2016-11-22T04:12:24.885Z,0
2016-11-22T04:13:35.418Z,0
2016-11-22T04:14:45.948Z,0
2016-11-22T04:15:56.476Z,0
2016-11-22T04:17:07.208Z,0
2016-11-22T04:18:17.766Z,0
2016-11-22T04:19:28.298Z,0
2016-11-22T04:20:53.853Z,0
2016-11-22T04:22:04.383Z,0
2016-11-22T04:23:14.917Z,0
2016-11-22T04:24:25.447Z,0
2016-11-22T04:25:35.978Z,0
2016-11-22T04:27:01.238Z,0
2016-11-22T04:28:11.771Z,0
2016-11-22T04:29:22.304Z,0
2016-11-22T04:30:32.837Z,0
2016-11-22T04:31:43.368Z,0
2016-11-22T04:32:53.899Z,0
2016-11-22T04:34:04.435Z,0
2016-11-22T04:35:14.967Z,0
2016-11-22T04:36:25.502Z,0
2016-11-22T04:37:36.033Z,0
2016-11-22T04:38:46.573Z,0
2016-11-22T04:39:57.114Z,0
2016-11-22T04:41:07.645Z,0
2016-11-22T04:42:18.678Z,0
2016-11-22T04:43:29.711Z,0
2016-11-22T04:44:40.351Z,0
2016-11-22T04:45:50.882Z,0
2016-11-22T04:47:01.416Z,0
2016-11-22T04:48:12.449Z,0
2016-11-22T04:49:22.989Z,0
2016-11-22T04:50:33.622Z,0
2016-11-22T04:51:44.151Z,0
2016-11-22T04:52:54.686Z,0
2016-11-22T04:54:05.214Z,0
2016-11-22T04:55:15.742Z,0
2016-11-22T04:56:26.476Z,0
2016-11-22T04:57:37.003Z,0
2016-11-22T04:58:47.533Z,0
2016-11-22T04:59:58.064Z,0
2016-11-22T05:01:23.049Z,0
2016-11-22T05:02:33.490Z,0
2016-11-22T05:03:43.962Z,0
2016-11-22T05:04:54.400Z,0
2016-11-22T05:06:04.840Z,0
2016-11-22T05:07:15.380Z,0
2016-11-22T05:08:25.815Z,0
2016-11-22T05:09:36.256Z,0
2016-11-22T05:10:46.695Z,0
2016-11-22T05:11:57.135Z,0
2016-11-22T05:13:07.773Z,0
2016-11-22T05:14:18.208Z,0
2016-11-22T05:15:28.658Z,0
2016-11-22T05:16:39.127Z,0
2016-11-22T05:17:49.567Z,0
2016-11-22T05:19:00.230Z,0
2016-11-22T05:20:10.668Z,0
2016-11-22T05:21:21.104Z,0
2016-11-22T05:22:31.547Z,0
2016-11-22T05:23:41.983Z,0
2016-11-22T05:24:52.419Z,0
2016-11-22T05:26:02.868Z,0
2016-11-22T05:27:13.320Z,0
2016-11-22T05:28:23.794Z,0
2016-11-22T05:29:34.232Z,0
2016-11-22T05:30:44.671Z,0
2016-11-22T05:31:55.112Z,0
2016-11-22T05:33:05.551Z,0
2016-11-22T05:34:15.994Z,0
2016-11-22T05:35:40.978Z,0
2016-11-22T05:36:51.417Z,0
2016-11-22T05:38:01.855Z,0
2016-11-22T05:39:12.290Z,0
2016-11-22T05:40:22.727Z,0
2016-11-22T05:41:33.268Z,0
2016-11-22T05:42:43.712Z,0
2016-11-22T05:43:54.160Z,0
2016-11-22T05:45:04.597Z,0
2016-11-22T05:46:15.036Z,0
2016-11-22T05:47:25.478Z,0
2016-11-22T05:48:35.922Z,0
2016-11-22T05:49:46.361Z,0
2016-11-22T05:50:56.802Z,0
2016-11-22T05:52:07.728Z,0
2016-11-22T05:53:18.265Z,0
2016-11-22T05:54:43.252Z,0
2016-11-22T05:55:53.718Z,0
2016-11-22T05:57:04.161Z,0
2016-11-22T05:58:14.598Z,0
2016-11-22T05:59:25.041Z,0
2016-11-22T06:00:35.484Z,0
2016-11-22T06:01:45.922Z,0
2016-11-22T06:02:56.360Z,0
2016-11-22T06:04:06.897Z,0
2016-11-22T06:05:17.366Z,0
2016-11-22T06:06:28.308Z,0
2016-11-22T06:07:38.746Z,0
2016-11-22T06:08:49.184Z,0
2016-11-22T06:10:00.109Z,0
2016-11-22T06:11:10.549Z,0
2016-11-22T06:12:20.987Z,0
2016-11-22T06:13:31.427Z,0
2016-11-22T06:14:41.867Z,0
2016-11-22T06:15:52.406Z,0
2016-11-22T06:17:02.722Z,0
2016-11-22T06:18:13.048Z,0
2016-11-22T06:19:23.369Z,0
2016-11-22T06:20:33.689Z,0
2016-11-22T06:21:44.115Z,0
2016-11-22T06:22:54.436Z,0
2016-11-22T06:24:05.631Z,0
2016-11-22T06:25:30.516Z,0
2016-11-22T06:26:40.939Z,0
2016-11-22T06:27:51.291Z,0
2016-11-22T06:29:01.610Z,0
2016-11-22T06:30:11.932Z,0
2016-11-22T06:31:22.251Z,0
2016-11-22T06:32:32.569Z,0
2016-11-22T06:33:42.887Z,0
2016-11-22T06:34:53.208Z,0
2016-11-22T06:36:03.527Z,0
2016-11-22T06:37:13.857Z,0
2016-11-22T06:38:24.314Z,0
2016-11-22T06:39:34.636Z,0
2016-11-22T06:40:44.959Z,0
2016-11-22T06:41:55.279Z,0
2016-11-22T06:43:05.596Z,0
2016-11-22T06:44:15.927Z,0
2016-11-22T06:45:26.243Z,0
2016-11-22T06:46:36.566Z,0
2016-11-22T06:47:46.887Z,0
2016-11-22T06:48:57.689Z,0
2016-11-22T06:50:22.577Z,0
2016-11-22T06:51:32.897Z,0
2016-11-22T06:52:43.215Z,0
2016-11-22T06:53:53.533Z,0
2016-11-22T06:55:03.958Z,0
2016-11-22T06:56:14.284Z,0
2016-11-22T06:57:24.607Z,0
2016-11-22T06:58:34.927Z,0
2016-11-22T06:59:45.280Z,0
2016-11-22T07:00:55.609Z,0
2016-11-22T07:03:30.814Z,0
2016-11-22T07:04:41.152Z,0
2016-11-22T07:05:51.679Z,0
2016-11-22T07:07:16.568Z,0
2016-11-22T07:08:26.890Z,0
2016-11-22T07:09:37.211Z,0
2016-11-22T07:10:47.630Z,0
2016-11-22T07:12:13.031Z,0
2016-11-22T07:13:23.828Z,0
2016-11-22T07:14:34.147Z,0
2016-11-22T07:15:44.468Z,0
2016-11-22T07:16:54.983Z,0
2016-11-22T07:18:05.877Z,0
2016-11-22T07:19:16.314Z,0
2016-11-22T07:20:26.724Z,0
2016-11-22T07:21:37.174Z,0
2016-11-22T07:22:47.586Z,0
2016-11-22T07:23:57.995Z,0
2016-11-22T07:25:08.405Z,0
2016-11-22T07:26:18.921Z,0
2016-11-22T07:27:44.175Z,0
2016-11-22T07:28:54.714Z,0
2016-11-22T07:30:05.243Z,0
2016-11-22T07:31:15.776Z,0
2016-11-22T07:32:26.302Z,0
2016-11-22T07:33:36.841Z,0
2016-11-22T07:34:47.383Z,0
2016-11-22T07:35:57.920Z,0
2016-11-22T07:37:22.976Z,0
2016-11-22T07:38:33.605Z,0
2016-11-22T07:39:44.136Z,0
2016-11-22T07:40:54.669Z,0
2016-11-22T07:42:05.196Z,0
2016-11-22T07:43:30.358Z,0
2016-11-22T07:44:40.919Z,0
2016-11-22T07:45:51.448Z,0
2016-11-22T07:47:01.983Z,0
2016-11-22T07:48:12.512Z,0
2016-11-22T07:49:23.248Z,0
2016-11-22T07:50:33.779Z,0
2016-11-22T07:51:58.831Z,0
2016-11-22T07:53:23.888Z,0
2016-11-22T07:54:34.448Z,0
2016-11-22T07:55:44.980Z,0
2016-11-22T07:56:55.510Z,0
2016-11-22T07:58:06.039Z,0
2016-11-22T07:59:16.576Z,0
2016-11-22T08:00:27.110Z,0
2016-11-22T08:01:37.642Z,0
2016-11-22T08:02:48.201Z,0
2016-11-22T08:03:58.737Z,0
2016-11-22T08:05:09.267Z,0
2016-11-22T08:06:20.018Z,0
2016-11-22T08:07:30.550Z,0
2016-11-22T08:08:41.077Z,0
2016-11-22T08:09:51.625Z,0
2016-11-22T08:11:02.153Z,0
2016-11-22T08:12:12.785Z,0
2016-11-22T08:13:23.316Z,0
2016-11-22T08:14:33.856Z,0
2016-11-22T08:15:44.386Z,0
2016-11-22T08:16:54.918Z,0
2016-11-22T08:18:06.149Z,0
2016-11-22T08:19:16.676Z,0
2016-11-22T08:20:27.207Z,0
2016-11-22T08:21:37.732Z,0
2016-11-22T08:22:48.271Z,0
2016-11-22T08:23:59.002Z,0
2016-11-22T08:25:09.532Z,0
2016-11-22T08:26:20.564Z,0
2016-11-22T08:27:31.095Z,0
2016-11-22T08:28:41.633Z,0
2016-11-22T08:29:52.195Z,0
2016-11-22T08:31:02.727Z,0
2016-11-22T08:32:13.254Z,0
2016-11-22T08:33:23.844Z,0
2016-11-22T08:34:34.374Z,0
2016-11-22T08:35:44.907Z,0
2016-11-22T08:36:55.434Z,0
2016-11-22T08:38:05.963Z,0
2016-11-22T08:39:16.498Z,0
2016-11-22T08:40:27.025Z,0
2016-11-22T08:41:38.105Z,0
2016-11-22T08:42:48.664Z,0
2016-11-22T08:43:59.192Z,0
2016-11-22T08:45:09.753Z,0
2016-11-22T08:46:20.196Z,5
2016-11-22T08:47:30.833Z,5
2016-11-22T08:48:41.274Z,5
2016-11-22T08:49:51.714Z,5
2016-11-22T08:51:16.695Z,5
2016-11-22T08:52:27.255Z,5
2016-11-22T08:53:37.686Z,5
2016-11-22T08:54:48.130Z,5
2016-11-22T08:55:58.565Z,5
2016-11-22T08:57:09.006Z,5
2016-11-22T08:58:19.580Z,5
2016-11-22T08:59:30.505Z,5
2016-11-22T09:00:40.944Z,5
2016-11-22T09:01:51.385Z,5
2016-11-22T09:03:01.820Z,5
2016-11-22T09:04:12.253Z,5
2016-11-22T09:05:22.694Z,5
2016-11-22T09:06:33.135Z,10
2016-11-22T09:07:43.571Z,10
2016-11-22T09:08:54.004Z,10
2016-11-22T09:10:05.130Z,10
2016-11-22T09:11:15.567Z,10
2016-11-22T09:12:26.010Z,10
2016-11-22T09:13:36.455Z,10
2016-11-22T09:14:46.893Z,10
2016-11-22T09:15:57.331Z,5
2016-11-22T09:17:07.766Z,5
2016-11-22T09:18:18.204Z,5
2016-11-22T09:19:28.652Z,5
2016-11-22T09:20:39.110Z,5
2016-11-22T09:21:50.159Z,10
2016-11-22T09:23:00.594Z,10
2016-11-22T09:24:11.028Z,10
2016-11-22T09:25:21.467Z,5
2016-11-22T09:26:31.901Z,5
2016-11-22T09:27:42.442Z,5
2016-11-22T09:28:52.887Z,5
2016-11-22T09:30:03.328Z,5
2016-11-22T09:31:13.761Z,5
2016-11-22T09:32:24.201Z,10
2016-11-22T09:33:34.640Z,10
2016-11-22T09:34:45.076Z,10
2016-11-22T09:35:55.516Z,10
2016-11-22T09:37:05.954Z,10
2016-11-22T09:38:16.902Z,10
2016-11-22T09:39:27.542Z,10
2016-11-22T09:40:37.978Z,10
2016-11-22T09:41:48.415Z,15
2016-11-22T09:42:58.846Z,15
2016-11-22T09:44:09.283Z,15
2016-11-22T09:45:19.634Z,15
2016-11-22T09:46:29.954Z,15
2016-11-22T09:47:40.287Z,15
2016-11-22T09:48:51.091Z,15
2016-11-22T09:50:01.413Z,15
2016-11-22T09:51:11.729Z,15
2016-11-22T09:52:22.049Z,20
2016-11-22T09:53:32.850Z,20
2016-11-22T09:54:43.175Z,20
2016-11-22T09:55:53.496Z,20
2016-11-22T09:57:04.018Z,20
2016-11-22T09:58:14.351Z,25
2016-11-22T10:03:13.863Z,20
2016-11-22T10:04:24.319Z,20
2016-11-22T10:05:34.755Z,25
2016-11-22T10:06:45.196Z,25
2016-11-22T10:07:55.634Z,20
2016-11-22T10:09:06.270Z,25
2016-11-22T10:10:16.707Z,20
2016-11-22T10:11:27.147Z,20
2016-11-22T10:12:37.621Z,15
2016-11-22T10:13:48.061Z,20
2016-11-22T10:14:58.496Z,15
2016-11-22T10:16:08.952Z,15
2016-11-22T10:17:19.385Z,15
2016-11-22T10:20:09.510Z,15
2016-11-22T10:21:19.832Z,15
2016-11-22T10:22:44.721Z,20
2016-11-22T10:23:55.044Z,20
2016-11-22T10:25:05.362Z,20
2016-11-22T10:26:16.163Z,25
2016-11-22T10:27:26.486Z,25
2016-11-22T10:28:36.807Z,25
2016-11-22T10:29:47.130Z,20
2016-11-22T10:30:57.549Z,20
2016-11-22T10:32:07.868Z,30
2016-11-22T10:33:18.192Z,35
2016-11-22T10:34:28.515Z,35
2016-11-22T10:35:38.831Z,35
2016-11-22T10:36:49.149Z,35
2016-11-22T10:38:14.037Z,35
2016-11-22T10:39:24.355Z,30
2016-11-22T10:40:34.683Z,35
2016-11-22T10:41:45.099Z,35
2016-11-22T10:42:55.418Z,35
2016-11-22T10:44:05.740Z,40
2016-11-22T10:45:16.551Z,40
2016-11-22T10:46:26.867Z,35
2016-11-22T10:47:37.386Z,25
2016-11-22T10:48:47.707Z,25
2016-11-22T10:49:58.022Z,25
2016-11-22T10:51:08.813Z,25
2016-11-22T10:52:19.606Z,25
2016-11-22T10:53:30.954Z,25
2016-11-22T10:54:41.271Z,25
2016-11-22T10:55:52.074Z,30
2016-11-22T10:57:02.392Z,30
2016-11-22T10:58:13.307Z,35
2016-11-22T10:59:38.402Z,35
2016-11-22T11:00:48.792Z,40
2016-11-22T11:01:59.199Z,35
2016-11-22T11:03:09.607Z,35
2016-11-22T11:04:20.224Z,30
2016-11-22T11:05:30.642Z,35
2016-11-22T11:06:41.052Z,40
2016-11-22T11:09:16.954Z,40
2016-11-22T11:10:27.360Z,40
2016-11-22T11:11:37.776Z,40
2016-11-22T11:12:48.182Z,40
2016-11-22T11:13:58.587Z,50
2016-11-22T11:15:08.998Z,50
2016-11-22T11:16:19.408Z,40
2016-11-22T11:17:29.821Z,45
2016-11-22T11:18:40.232Z,35
2016-11-22T11:19:50.641Z,30
2016-11-22T11:21:01.052Z,35
2016-11-22T11:23:36.932Z,35
2016-11-22T11:24:47.343Z,35
2016-11-22T11:25:57.952Z,35
2016-11-22T11:27:08.366Z,35
2016-11-22T11:28:18.779Z,35
2016-11-22T11:29:29.303Z,35
2016-11-22T11:30:39.839Z,35
2016-11-22T11:31:50.615Z,35
2016-11-22T11:33:01.145Z,35
2016-11-22T11:34:11.683Z,35
2016-11-22T11:35:22.215Z,35
2016-11-22T11:36:32.746Z,40
2016-11-22T11:37:43.288Z,40
2016-11-22T11:40:18.878Z,45
2016-11-22T11:41:29.408Z,35
2016-11-22T11:42:39.937Z,25
2016-11-22T11:43:50.468Z,30
2016-11-22T11:45:01.517Z,45
2016-11-22T11:46:12.052Z,45
2016-11-22T11:47:22.577Z,45
2016-11-22T11:48:33.319Z,45
2016-11-22T11:49:43.850Z,50
2016-11-22T11:50:54.380Z,50
2016-11-22T11:52:04.923Z,50
2016-11-22T11:53:15.454Z,55
2016-11-22T11:54:25.993Z,55
2016-11-22T11:55:36.549Z,30
2016-11-22T11:56:47.107Z,35
2016-11-22T11:57:57.635Z,55
2016-11-22T11:59:08.168Z,55
2016-11-22T12:00:18.925Z,55
2016-11-22T12:01:29.957Z,30
2016-11-22T12:02:40.488Z,30
2016-11-22T12:03:51.019Z,55
2016-11-22T12:05:01.553Z,60
2016-11-22T12:06:12.081Z,60
2016-11-22T12:07:22.615Z,60
2016-11-22T12:08:33.648Z,60
2016-11-22T12:09:44.190Z,60
2016-11-22T12:10:54.745Z,60
2016-11-22T12:12:05.476Z,60
2016-11-22T12:13:16.005Z,60
2016-11-22T12:14:27.056Z,60
2016-11-22T12:15:52.143Z,30
2016-11-22T12:17:02.676Z,60
2016-11-22T12:18:13.226Z,65
2016-11-22T12:19:23.799Z,70
2016-11-22T12:20:34.334Z,70
2016-11-22T12:21:44.875Z,70
2016-11-22T12:24:20.669Z,65
2016-11-22T12:25:31.210Z,65
2016-11-22T12:26:41.741Z,75
2016-11-22T12:27:52.272Z,45
2016-11-22T12:29:02.812Z,75
2016-11-22T12:30:13.351Z,35
2016-11-22T12:31:23.887Z,30
2016-11-22T12:32:34.417Z,75
2016-11-22T12:33:44.953Z,80
2016-11-22T12:34:55.484Z,50
2016-11-22T12:36:06.020Z,40
2016-11-22T12:37:16.552Z,75
2016-11-22T12:38:26.975Z,75
2016-11-22T12:41:02.360Z,70
2016-11-22T12:42:12.775Z,75
2016-11-22T12:43:23.225Z,80
2016-11-22T12:44:33.644Z,40
2016-11-22T12:45:44.060Z,70
2016-11-22T12:46:54.501Z,75
2016-11-22T12:48:19.467Z,75
2016-11-22T12:49:29.876Z,80
2016-11-22T12:50:40.288Z,80
2016-11-22T12:51:50.700Z,85
2016-11-22T12:53:01.113Z,80
2016-11-22T12:54:11.528Z,80
2016-11-22T12:55:36.493Z,60
2016-11-22T12:56:46.912Z,85
2016-11-22T12:58:11.881Z,35
2016-11-22T12:59:22.297Z,40
2016-11-22T13:00:32.706Z,55
2016-11-22T13:01:43.122Z,45
2016-11-22T13:02:53.527Z,55
2016-11-22T13:04:03.938Z,45
2016-11-22T13:05:14.405Z,65
2016-11-22T13:06:24.818Z,70
2016-11-22T13:07:35.344Z,70
2016-11-22T13:08:45.879Z,100
2016-11-22T13:12:29.598Z,40
2016-11-22T13:13:39.921Z,55
2016-11-22T13:14:50.243Z,45
2016-11-22T13:16:00.662Z,55
2016-11-22T13:18:36.041Z,115
2016-11-22T13:19:46.454Z,85
2016-11-22T13:20:56.866Z,75
2016-11-22T13:22:21.831Z,90
2016-11-22T13:23:32.255Z,55
2016-11-22T13:24:42.667Z,70
2016-11-22T13:25:53.078Z,105
2016-11-22T13:27:03.502Z,90
2016-11-22T13:28:14.501Z,90
2016-11-22T13:29:25.404Z,95
2016-11-22T13:30:35.814Z,90
2016-11-22T13:31:46.224Z,90
2016-11-22T13:32:56.636Z,90
2016-11-22T13:34:21.805Z,90
2016-11-22T13:35:32.223Z,90
2016-11-22T13:36:42.643Z,90
2016-11-22T13:37:53.055Z,70
2016-11-22T13:39:03.958Z,90
2016-11-22T13:40:15.025Z,90
2016-11-22T13:41:25.443Z,90
2016-11-22T13:42:35.864Z,85
2016-11-22T13:44:00.837Z,90
2016-11-22T13:45:11.254Z,90
2016-11-22T13:46:21.670Z,85
2016-11-22T13:47:32.583Z,90
2016-11-22T13:48:43.002Z,85
2016-11-22T13:49:53.423Z,50
2016-11-22T13:51:03.840Z,35
2016-11-22T13:52:14.744Z,35
2016-11-22T13:53:25.163Z,30
2016-11-22T13:54:36.059Z,45
2016-11-22T13:55:46.672Z,70
2016-11-22T13:56:57.087Z,90
2016-11-22T13:58:07.504Z,90
2016-11-22T13:59:17.916Z,90
2016-11-22T14:00:28.243Z,80
2016-11-22T14:01:38.595Z,40
2016-11-22T14:02:48.919Z,45
2016-11-22T14:03:59.248Z,55
2016-11-22T14:05:24.621Z,70
2016-11-22T14:06:34.948Z,80
2016-11-22T14:07:45.305Z,85
2016-11-22T14:08:56.108Z,80
2016-11-22T14:10:06.467Z,55
2016-11-22T14:11:16.808Z,60
2016-11-22T14:12:27.136Z,70
2016-11-22T14:13:37.462Z,80
2016-11-22T14:14:48.267Z,75
2016-11-22T14:15:58.598Z,85
2016-11-22T14:17:08.965Z,90
2016-11-22T14:18:19.295Z,90
2016-11-22T14:19:29.617Z,75
2016-11-22T14:20:39.936Z,70
2016-11-22T14:21:50.269Z,85
2016-11-22T14:23:00.707Z,85
2016-11-22T14:24:11.162Z,65
2016-11-22T14:25:21.613Z,55
2016-11-22T14:26:32.056Z,35
2016-11-22T14:27:42.500Z,65
2016-11-22T14:28:52.949Z,85
2016-11-22T14:30:03.394Z,85
2016-11-22T14:31:28.384Z,90
2016-11-22T14:32:53.371Z,75
2016-11-22T14:34:03.817Z,80
2016-11-22T14:35:14.265Z,55
2016-11-22T14:36:24.712Z,90
2016-11-22T14:37:35.166Z,75
2016-11-22T14:38:45.613Z,65
2016-11-22T14:39:56.054Z,100
2016-11-22T14:41:06.608Z,85
2016-11-22T14:42:17.252Z,80
2016-11-22T14:43:28.195Z,85
2016-11-22T14:44:39.139Z,80
2016-11-22T14:45:50.174Z,90
2016-11-22T14:47:01.319Z,80
2016-11-22T14:48:11.856Z,85
2016-11-22T14:49:22.399Z,100
2016-11-22T14:50:32.937Z,100
2016-11-22T14:51:43.471Z,85
2016-11-22T14:52:54.004Z,95
2016-11-22T14:54:19.064Z,70
2016-11-22T14:55:29.598Z,75
2016-11-22T14:56:40.144Z,90
2016-11-22T14:57:50.676Z,90
2016-11-22T14:59:01.214Z,75
2016-11-22T15:00:11.753Z,90
2016-11-22T15:01:36.813Z,90
2016-11-22T15:02:47.347Z,75
2016-11-22T15:03:57.887Z,85
2016-11-22T15:05:08.421Z,80
2016-11-22T15:06:33.483Z,65
2016-11-22T15:07:44.023Z,70
2016-11-22T15:08:54.560Z,65
2016-11-22T15:10:05.101Z,80
2016-11-22T15:11:15.638Z,85
2016-11-22T15:12:26.171Z,80
2016-11-22T15:13:36.718Z,70
2016-11-22T15:16:12.517Z,70
2016-11-22T15:17:23.048Z,75
2016-11-22T15:18:33.580Z,75
2016-11-22T15:19:44.117Z,80
2016-11-22T15:20:54.653Z,75
2016-11-22T15:22:05.188Z,75
2016-11-22T15:23:15.721Z,55
2016-11-22T15:24:40.783Z,50
2016-11-22T15:26:06.052Z,60
2016-11-22T15:28:42.150Z,65
2016-11-22T15:29:52.687Z,60
2016-11-22T15:31:17.750Z,65
2016-11-22T15:33:53.352Z,50
2016-11-22T15:35:03.888Z,65
2016-11-22T15:36:14.421Z,60
2016-11-22T15:37:24.955Z,65
2016-11-22T15:40:00.555Z,55
2016-11-22T15:41:11.086Z,60
2016-11-22T15:42:21.622Z,45
2016-11-22T15:43:32.157Z,50
2016-11-22T15:44:42.697Z,70
2016-11-22T15:45:53.431Z,65
2016-11-22T15:47:03.965Z,60
2016-11-22T15:48:14.500Z,60
2016-11-22T15:51:19.359Z,70
2016-11-22T15:52:29.890Z,75
2016-11-22T15:53:54.951Z,70
2016-11-22T15:55:05.483Z,65
2016-11-22T15:56:17.233Z,55
2016-11-22T15:57:27.766Z,60
2016-11-22T15:58:38.301Z,60
2016-11-22T15:59:48.860Z,55
2016-11-22T16:00:59.394Z,60
2016-11-22T16:02:10.123Z,65
2016-11-22T16:03:20.665Z,65
2016-11-22T16:04:31.708Z,60
2016-11-22T16:05:42.239Z,65
2016-11-22T16:06:52.692Z,60
2016-11-22T16:08:03.105Z,65
2016-11-22T16:09:13.525Z,60
2016-11-22T16:10:38.491Z,55
2016-11-22T16:11:48.907Z,55
2016-11-22T16:12:59.517Z,55
2016-11-22T16:14:09.932Z,65
2016-11-22T16:15:20.260Z,65
2016-11-22T16:16:45.155Z,65
2016-11-22T16:17:55.685Z,65
2016-11-22T16:19:06.009Z,55
2016-11-22T16:20:16.333Z,50
2016-11-22T16:21:26.660Z,45
2016-11-22T16:22:36.982Z,45
2016-11-22T16:23:47.509Z,45
2016-11-22T16:24:57.832Z,55
2016-11-22T16:26:08.153Z,50
2016-11-22T16:27:18.476Z,60
2016-11-22T16:28:43.369Z,60
2016-11-22T16:30:08.258Z,45
2016-11-22T16:31:18.581Z,50
2016-11-22T16:32:28.905Z,55
2016-11-22T16:33:39.228Z,70
2016-11-22T16:35:04.122Z,70
2016-11-22T16:36:14.445Z,55
2016-11-22T16:37:24.764Z,45
2016-11-22T16:38:49.659Z,45
2016-11-22T16:39:59.982Z,45
2016-11-22T16:41:10.306Z,40
2016-11-22T16:42:20.633Z,50
2016-11-22T16:43:30.956Z,45
2016-11-22T16:44:41.278Z,40
2016-11-22T16:45:51.605Z,40
2016-11-22T16:47:01.936Z,40
2016-11-22T16:48:26.832Z,40
2016-11-22T16:49:37.152Z,40
2016-11-22T16:50:47.472Z,40
2016-11-22T16:51:57.799Z,50
2016-11-22T16:53:08.117Z,50
2016-11-22T16:54:18.452Z,45
2016-11-22T16:55:28.769Z,45
2016-11-22T16:56:39.192Z,40
2016-11-22T16:57:49.524Z,40
2016-11-22T16:58:59.843Z,45
2016-11-22T17:00:10.164Z,55
2016-11-22T17:01:20.487Z,60
2016-11-22T17:02:30.808Z,55
2016-11-22T17:03:41.128Z,55
2016-11-22T17:05:06.021Z,55
2016-11-22T17:06:16.346Z,55
2016-11-22T17:07:26.667Z,55
2016-11-22T17:08:36.989Z,55
2016-11-22T17:09:47.311Z,55
2016-11-22T17:10:57.632Z,60
2016-11-22T17:12:22.726Z,60
2016-11-22T17:13:33.525Z,55
2016-11-22T17:14:43.845Z,45
2016-11-22T17:15:54.164Z,55
2016-11-22T17:17:04.589Z,55
2016-11-22T17:18:15.224Z,50
2016-11-22T17:19:25.664Z,50
2016-11-22T17:20:36.102Z,45
2016-11-22T17:21:46.539Z,40
2016-11-22T17:22:56.986Z,40
2016-11-22T17:24:07.429Z,35
2016-11-22T17:25:17.872Z,30
2016-11-22T17:26:28.340Z,25
2016-11-22T17:27:38.783Z,25
2016-11-22T17:28:49.221Z,25
2016-11-22T17:30:00.154Z,30
2016-11-22T17:31:10.592Z,30
2016-11-22T17:32:21.032Z,30
2016-11-22T17:33:31.480Z,30
2016-11-22T17:34:42.411Z,30
2016-11-22T17:35:53.045Z,40
2016-11-22T17:37:03.482Z,35
2016-11-22T17:38:13.921Z,35
2016-11-22T17:39:24.363Z,30
2016-11-22T17:40:34.807Z,25
2016-11-22T17:43:10.224Z,25
2016-11-22T17:44:20.661Z,25
2016-11-22T17:45:31.187Z,25
2016-11-22T17:46:41.718Z,25
2016-11-22T17:47:52.255Z,20
2016-11-22T17:49:02.793Z,20
2016-11-22T17:50:13.321Z,20